Terminal Aerodrome Forecast
Issued by NWS

Home | Current Version | Previous Version | Text Only | Print | Product List | Glossary On
Versions: 1 2 3 4 5 6 7 8 9 10 11 12 13 14 15 16 17 18 19 20 21 22 23 24 25 26 27 28 29 30
000
FTPA31 PHFO 012300
TAFOGG
TAF
PHOG 012338Z 0200/0224 35011KT P6SM SCT025 SCT045
     FM020200 32008KT P6SM SCT025 SCT045
     FM020600 18005KT P6SM VCSH FEW025 BKN045
     FM022000 20012KT P6SM VCSH SCT025 BKN045
      AMD LTD TO VIS AND WIND 0209/0216=

USA.gov is the U.S. government's official web portal to all federal, state and local government web resources and services.